Airfield :
LOGIN :

Register | Disclaimer

   EN    FR    IT 

 










Legend :    VFR   Marginal VFR   IFR   Intensive IFR   Very Intensive IFR
Visi :
Ceiling :
>= 8 km
>= 3000ft
5 to 8 km
1000 to 3000 ft
1500m to 5 km
500 to 1000 ft
800 to 1500m
200 to 500 ft
< 800m
< 200 ft
Symbols :   Thunderstorms  Fog  Heavy snow  Heavy precipitations  Wind > 20 kt
SIGMETs :     Misc.  Thunderstorms  Icing  Turbulence  Mountain Waves  Volcanic Ashes







- Airport Elevation : 502 ft
- IATA code : ORK


EICK - Cork

CURRENT METAR :
  • 301400Z 18013KT 0200 R17/0275N R35/0275N -RA FG SCT001 BKN002 11/11 Q1007 TEMPO BKN001

EXPIRED METARs :
  • 301330Z 18015KT 0300 R17/0650D R35/0400D -RA FG SCT001 BKN002 11/11 Q1007 TEMPO BKN001
  • 301300Z 18013KT 0500 R17/0800U R35/0550N -DZ FG SCT001 BKN002 11/11 Q1007 TEMPO BKN001
  • 301230Z 18012KT 1100 R17/P1500 R35/1300D -DZ SCT001 BKN002 11/11 Q1008 TEMPO BKN001
  • 301200Z 19013KT 0300 R17/0750D R35/0600D -DZ FG SCT001 BKN002 11/11 Q1008 TEMPO BKN001
  • 301130Z 19013KT 0300 R17/0750D R35/1000D FG SCT001 BKN002 11/11 Q1008 TEMPO BKN001

TAF COR TAF EICK
Valid from the 30 at 12:00 until the 31 at 12:00 UTC


301127Z 3012/3112 20013KT 6000 -DZ SCT005 BKN012
BECMG 3012/3015 2000 BR SCT001 BKN003
TEMPO 3012/3103 0200 FG BKN001
BECMG 3103/3106 9999 NSW SCT012 BKN020
TEMPO 3108/3112 -SHRA BKN012 SCT018CB
No reported NOTAMs for that airfield.



MET'MAP, your aeronautical weather chart ! - Copyright ORBIFLY December 2007 - Disclaimer

ORBIFLY MET'MAP TEAM :

Programming & Development : Alexandra Zaïnal
Concept & Development : Baudouin d'Aumeries
Co-Development & Prog : Marc-Olivier Méhu
Technical & hardware support : Manuel Goepfert

Contact : metmap@orbifly.com




SOURCES & CREDITS :

   NOAA